Time;durP1;ratioP1;P1;durP2;ratioP2;P2;SDS_P1;SDS_P2;PMS_P1;PMS_P2;Temp;Humidity;BMP_temperature;BMP_pressure;BME280_temperature;BME280_humidity;BME280_pressure;Samples;Min_cycle;Max_cycle;Signal;HPM_P1;HPM_P2
2021/05/16 00:01:22;;;;;;;2.35;0.73;;;10.10;74.00;;;;;;5038050;28;20060;-64
2021/05/16 00:03:50;;;;;;;2.53;0.75;;;10.10;74.20;;;;;;5029386;28;20033;-64
2021/05/16 00:06:18;;;;;;;3.25;0.60;;;10.10;74.10;;;;;;5026864;28;20419;-65
2021/05/16 00:08:48;;;;;;;1.10;0.60;;;10.10;74.10;;;;;;5025724;28;20428;-64
2021/05/16 00:11:14;;;;;;;1.85;0.80;;;10.10;73.90;;;;;;5022818;28;20564;-64
2021/05/16 00:13:43;;;;;;;3.25;0.73;;;10.10;74.10;;;;;;5026831;28;20569;-64
2021/05/16 00:16:11;;;;;;;1.90;0.70;;;10.10;74.00;;;;;;5025569;28;20155;-63
2021/05/16 00:18:42;;;;;;;1.70;0.60;;;10.10;74.30;;;;;;5029479;28;20041;-64
2021/05/16 00:21:08;;;;;;;0.90;0.57;;;10.10;74.10;;;;;;5029367;28;20592;-64
2021/05/16 00:23:39;;;;;;;2.95;0.45;;;10.10;74.10;;;;;;5026477;28;20034;-64
2021/05/16 00:26:04;;;;;;;1.38;0.55;;;10.10;74.00;;;;;;5026801;28;20596;-65
2021/05/16 00:28:37;;;;;;;1.15;0.50;;;10.10;74.10;;;;;;5024423;28;20794;-64
2021/05/16 00:31:03;;;;;;;1.13;0.47;;;10.10;74.30;;;;;;5024928;28;20073;-64
2021/05/16 00:33:28;;;;;;;0.77;0.35;;;10.10;73.90;;;;;;5026312;28;20520;-66
2021/05/16 00:35:59;;;;;;;1.38;0.35;;;10.10;73.90;;;;;;5030156;28;20041;-64
2021/05/16 00:38:31;;;;;;;1.45;0.40;;;10.10;73.90;;;;;;5028821;28;20029;-64
2021/05/16 00:41:04;;;;;;;1.98;0.38;;;10.20;74.10;;;;;;5025589;28;20628;-64
2021/05/16 00:43:29;;;;;;;1.70;0.57;;;10.10;74.10;;;;;;5026341;28;20045;-64
2021/05/16 00:45:57;;;;;;;1.25;0.50;;;10.10;73.90;;;;;;5044627;28;20612;-64
2021/05/16 00:48:27;;;;;;;5.45;0.30;;;10.20;74.40;;;;;;5028187;28;20037;-64
2021/05/16 00:50:55;;;;;;;1.33;0.60;;;10.10;74.20;;;;;;5028522;28;20041;-64
2021/05/16 00:53:27;;;;;;;1.65;0.40;;;10.10;74.20;;;;;;5023578;28;20034;-64
2021/05/16 00:55:57;;;;;;;1.35;0.40;;;10.10;74.40;;;;;;5031689;28;20132;-65
2021/05/16 00:58:25;;;;;;;0.47;0.32;;;10.10;74.20;;;;;;5021773;28;20544;-64
2021/05/16 01:00:54;;;;;;;0.65;0.50;;;10.10;74.40;;;;;;5024159;28;20033;-63
2021/05/16 01:03:27;;;;;;;1.80;0.40;;;10.10;74.60;;;;;;5027539;28;20040;-64
2021/05/16 01:05:57;;;;;;;0.98;0.40;;;10.10;74.70;;;;;;5026678;28;20148;-64
2021/05/16 01:08:30;;;;;;;2.28;0.50;;;10.10;74.40;;;;;;5029247;28;20041;-64
2021/05/16 01:11:01;;;;;;;1.30;0.30;;;10.10;74.70;;;;;;5027596;28;20033;-63
2021/05/16 01:13:27;;;;;;;1.35;0.30;;;10.10;74.40;;;;;;5023635;28;20037;-64
2021/05/16 01:15:57;;;;;;;0.70;0.30;;;10.20;74.60;;;;;;5029016;28;20033;-64
2021/05/16 01:18:25;;;;;;;1.13;0.32;;;10.20;74.70;;;;;;5026038;28;20029;-63
2021/05/16 01:20:52;;;;;;;1.45;0.40;;;10.20;74.90;;;;;;5028963;28;20044;-64
2021/05/16 01:23:35;;;;;;;0.40;0.30;;;10.20;74.60;;;;;;5024031;28;20045;-64
2021/05/16 01:26:05;;;;;;;1.40;0.30;;;10.20;74.70;;;;;;5037806;28;20037;-64
2021/05/16 01:28:31;;;;;;;0.70;0.30;;;10.20;74.60;;;;;;5035600;28;20061;-64
2021/05/16 01:30:56;;;;;;;0.38;0.30;;;10.30;74.40;;;;;;5026840;28;20045;-64
2021/05/16 01:33:24;;;;;;;0.35;0.32;;;10.30;74.40;;;;;;5028872;28;20036;-64
2021/05/16 01:35:54;;;;;;;1.88;0.22;;;10.30;74.40;;;;;;5027943;28;20034;-64
2021/05/16 01:38:23;;;;;;;0.25;0.20;;;10.30;74.50;;;;;;5025689;28;20033;-65
2021/05/16 01:40:51;;;;;;;2.33;0.20;;;10.40;74.50;;;;;;5034165;28;20045;-64
2021/05/16 01:43:21;;;;;;;0.40;0.30;;;10.40;74.40;;;;;;5033551;28;20121;-63
2021/05/16 01:45:49;;;;;;;0.85;0.28;;;10.40;74.30;;;;;;5040064;28;20037;-64
2021/05/16 01:48:15;;;;;;;0.77;0.20;;;10.40;74.40;;;;;;5037876;28;20033;-63
2021/05/16 01:50:45;;;;;;;0.98;0.20;;;10.40;74.10;;;;;;5033893;28;20052;-64
2021/05/16 01:53:13;;;;;;;1.92;0.30;;;10.40;74.40;;;;;;5033372;28;20026;-64
2021/05/16 01:55:43;;;;;;;0.75;0.20;;;10.50;74.20;;;;;;5031446;28;20989;-64
2021/05/16 01:58:10;;;;;;;1.20;0.20;;;10.40;74.20;;;;;;5029972;28;20033;-64
2021/05/16 02:00:43;;;;;;;0.28;0.20;;;10.40;74.20;;;;;;5028647;28;20099;-64
2021/05/16 02:03:09;;;;;;;0.40;0.10;;;10.50;74.50;;;;;;5029293;28;20038;-63
2021/05/16 02:05:35;;;;;;;0.40;0.10;;;10.50;74.20;;;;;;5026074;28;20111;-64
2021/05/16 02:08:03;;;;;;;0.68;0.20;;;10.50;74.20;;;;;;5034282;28;20041;-64
2021/05/16 02:10:31;;;;;;;1.35;0.20;;;10.50;74.10;;;;;;5032857;28;20524;-64
2021/05/16 02:13:01;;;;;;;0.75;0.20;;;10.60;74.30;;;;;;5034477;28;20033;-64
2021/05/16 02:15:32;;;;;;;0.10;0.10;;;10.50;74.20;;;;;;5039507;28;20032;-64
2021/05/16 02:17:59;;;;;;;0.20;0.10;;;10.60;75.10;;;;;;5036416;28;20033;-63
2021/05/16 02:20:28;;;;;;;0.52;0.10;;;10.60;74.00;;;;;;5035145;28;20060;-64
2021/05/16 02:22:56;;;;;;;0.75;0.20;;;10.60;73.90;;;;;;5032946;28;20059;-64
2021/05/16 02:25:24;;;;;;;1.48;0.20;;;10.60;74.00;;;;;;5033181;28;20026;-63
2021/05/16 02:27:52;;;;;;;1.30;0.30;;;10.60;74.00;;;;;;5030777;28;20034;-64
2021/05/16 02:30:23;;;;;;;0.55;0.20;;;10.60;74.10;;;;;;5032142;28;20481;-64
2021/05/16 02:32:48;;;;;;;0.55;0.15;;;10.60;74.00;;;;;;5038281;28;20033;-64
2021/05/16 02:35:19;;;;;;;0.60;0.30;;;10.60;73.90;;;;;;5037206;28;20504;-64
2021/05/16 02:37:49;;;;;;;0.50;0.20;;;10.60;73.80;;;;;;5029796;28;20037;-64
2021/05/16 02:40:21;;;;;;;0.75;0.20;;;10.70;74.90;;;;;;5030239;28;20516;-64
2021/05/16 02:42:48;;;;;;;0.93;0.10;;;10.60;74.00;;;;;;5036368;28;20053;-64
2021/05/16 02:45:17;;;;;;;0.80;0.20;;;10.70;74.00;;;;;;5035931;28;20021;-64
2021/05/16 02:47:45;;;;;;;0.28;0.10;;;10.60;73.90;;;;;;5030957;28;20038;-63
2021/05/16 02:50:16;;;;;;;1.85;0.30;;;10.70;74.00;;;;;;5033885;28;20037;-64
2021/05/16 02:52:44;;;;;;;0.35;0.10;;;10.70;74.20;;;;;;5033270;28;20040;-64
2021/05/16 02:55:15;;;;;;;1.02;0.20;;;10.70;74.00;;;;;;5027982;28;20041;-64
2021/05/16 02:57:43;;;;;;;1.05;0.30;;;10.70;75.00;;;;;;5032185;28;20436;-64
2021/05/16 03:00:14;;;;;;;1.50;0.20;;;10.70;74.00;;;;;;5028739;28;20142;-64
2021/05/16 03:02:42;;;;;;;0.50;0.20;;;10.70;74.30;;;;;;5030501;28;20101;-64
2021/05/16 03:05:10;;;;;;;0.82;0.20;;;10.70;74.20;;;;;;5030610;28;20044;-63
2021/05/16 03:07:43;;;;;;;0.43;0.30;;;10.70;74.20;;;;;;5029678;28;20037;-64
2021/05/16 03:10:13;;;;;;;1.23;0.20;;;10.70;74.40;;;;;;5035911;28;20042;-64
2021/05/16 03:12:41;;;;;;;1.45;0.22;;;10.70;74.50;;;;;;5028579;28;20040;-63
2021/05/16 03:15:12;;;;;;;0.43;0.30;;;10.80;74.40;;;;;;5035980;28;20136;-64
2021/05/16 03:17:43;;;;;;;0.63;0.20;;;10.80;74.70;;;;;;5036770;28;20412;-64
2021/05/16 03:20:12;;;;;;;0.28;0.10;;;10.80;74.80;;;;;;5037929;28;20049;-63
2021/05/16 03:22:43;;;;;;;0.98;0.20;;;10.80;74.80;;;;;;5034493;28;20026;-64
2021/05/16 03:25:15;;;;;;;1.27;0.20;;;10.80;75.10;;;;;;5035965;28;20033;-64
2021/05/16 03:27:48;;;;;;;0.32;0.20;;;10.80;75.30;;;;;;5035782;28;20033;-64
2021/05/16 03:30:19;;;;;;;0.50;0.20;;;10.70;75.40;;;;;;5036029;28;20033;-64
2021/05/16 03:32:45;;;;;;;0.50;0.20;;;10.80;75.30;;;;;;5031045;28;20044;-64
2021/05/16 03:35:16;;;;;;;0.88;0.20;;;10.70;75.20;;;;;;5047724;28;20037;-64
2021/05/16 03:37:46;;;;;;;2.47;0.60;;;10.70;75.50;;;;;;5039635;28;20041;-63
2021/05/16 03:40:16;;;;;;;0.32;0.20;;;10.70;75.60;;;;;;5030597;28;20037;-63
2021/05/16 03:42:49;;;;;;;0.90;0.30;;;10.70;75.70;;;;;;5034091;28;20033;-63
2021/05/16 03:45:17;;;;;;;1.83;0.30;;;10.70;76.00;;;;;;5037764;28;20033;-64
2021/05/16 03:47:47;;;;;;;0.90;0.40;;;10.70;75.40;;;;;;5032919;28;20036;-64
2021/05/16 03:50:20;;;;;;;0.30;0.10;;;10.70;75.60;;;;;;5033604;28;20048;-64
2021/05/16 03:52:48;;;;;;;8.13;4.95;;;10.70;75.70;;;;;;5027829;28;20630;-64
2021/05/16 03:55:19;;;;;;;10.60;7.40;;;10.70;75.60;;;;;;5026978;28;20045;-63
2021/05/16 03:57:49;;;;;;;2.38;1.98;;;10.70;75.90;;;;;;5026902;28;20063;-63
2021/05/16 04:00:16;;;;;;;0.88;0.80;;;10.70;75.60;;;;;;5028088;28;20029;-64
2021/05/16 04:02:45;;;;;;;1.23;0.77;;;10.70;75.60;;;;;;5027887;28;20029;-65
2021/05/16 04:05:14;;;;;;;0.77;0.60;;;10.70;75.80;;;;;;5030027;28;20033;-64
2021/05/16 04:07:43;;;;;;;1.58;0.80;;;10.70;75.80;;;;;;5034827;28;20060;-64
2021/05/16 04:10:12;;;;;;;1.08;0.60;;;10.70;75.80;;;;;;5035449;28;20072;-64
2021/05/16 04:12:40;;;;;;;1.23;0.60;;;10.70;75.90;;;;;;5023027;28;20039;-64
2021/05/16 04:15:08;;;;;;;0.60;0.40;;;10.70;75.60;;;;;;5027159;28;20033;-63
2021/05/16 04:17:39;;;;;;;1.85;0.50;;;10.70;75.70;;;;;;5029524;28;20524;-64
2021/05/16 04:20:08;;;;;;;1.95;0.60;;;10.70;75.80;;;;;;5037095;28;20033;-64
2021/05/16 04:22:39;;;;;;;0.88;0.30;;;10.80;76.10;;;;;;5035606;28;20032;-63
2021/05/16 04:25:09;;;;;;;1.20;0.38;;;10.80;76.00;;;;;;5040953;28;20037;-64
2021/05/16 04:27:35;;;;;;;0.57;0.40;;;10.70;75.90;;;;;;5027877;28;20034;-63
2021/05/16 04:30:04;;;;;;;1.50;0.50;;;10.80;76.00;;;;;;5030478;28;20030;-63
2021/05/16 04:32:32;;;;;;;1.83;0.50;;;10.70;76.20;;;;;;5032962;28;20033;-64
2021/05/16 04:34:59;;;;;;;1.33;0.43;;;10.70;76.10;;;;;;5033433;28;20029;-64
2021/05/16 04:37:30;;;;;;;0.55;0.28;;;10.80;76.10;;;;;;5030343;28;20497;-64
2021/05/16 04:39:58;;;;;;;1.60;0.60;;;10.80;76.10;;;;;;5030125;28;20088;-64
2021/05/16 04:42:31;;;;;;;1.40;0.52;;;10.80;76.10;;;;;;5030701;28;20068;-64
2021/05/16 04:45:01;;;;;;;1.23;0.40;;;10.80;76.30;;;;;;5041696;28;20049;-63
2021/05/16 04:47:26;;;;;;;2.38;1.35;;;10.80;76.20;;;;;;5031913;28;20719;-64
2021/05/16 04:49:54;;;;;;;1.73;0.65;;;10.90;76.10;;;;;;5035300;28;20128;-64
2021/05/16 04:52:22;;;;;;;1.13;0.55;;;10.90;76.10;;;;;;5031609;28;20029;-64
2021/05/16 04:54:55;;;;;;;1.85;0.60;;;10.90;76.20;;;;;;5032433;28;20040;-64
2021/05/16 04:57:23;;;;;;;0.65;0.40;;;10.90;76.20;;;;;;5029636;28;20037;-63
2021/05/16 04:59:51;;;;;;;1.40;0.60;;;10.90;76.10;;;;;;5025601;28;20034;-63
2021/05/16 05:02:20;;;;;;;1.13;0.35;;;10.90;76.00;;;;;;5034342;28;20064;-62
2021/05/16 05:04:50;;;;;;;1.42;0.50;;;10.90;76.20;;;;;;5033600;28;20037;-64
2021/05/16 05:07:21;;;;;;;1.00;0.50;;;10.90;76.20;;;;;;5031350;28;20037;-64
2021/05/16 05:09:51;;;;;;;1.45;1.30;;;11.00;76.50;;;;;;5032647;28;20059;-64
2021/05/16 05:12:21;;;;;;;0.63;0.40;;;11.00;76.50;;;;;;5026512;28;20057;-63
2021/05/16 05:14:52;;;;;;;0.95;0.40;;;11.00;76.50;;;;;;5032409;28;20038;-63
2021/05/16 05:17:17;;;;;;;1.58;0.55;;;11.10;76.50;;;;;;5031327;28;20037;-64
2021/05/16 05:19:45;;;;;;;1.88;0.30;;;11.10;76.30;;;;;;5038203;28;20033;-64
2021/05/16 05:22:15;;;;;;;0.73;0.50;;;11.10;76.30;;;;;;5031957;28;20037;-64
2021/05/16 05:24:44;;;;;;;3.28;0.60;;;11.20;76.40;;;;;;5036714;28;20500;-64
2021/05/16 05:27:16;;;;;;;1.27;0.45;;;11.20;76.20;;;;;;5031714;28;20045;-64
2021/05/16 05:29:42;;;;;;;1.45;0.90;;;11.20;76.20;;;;;;5030655;28;20029;-64
2021/05/16 05:32:10;;;;;;;2.10;0.68;;;11.30;76.00;;;;;;5031190;28;20393;-64
2021/05/16 05:34:42;;;;;;;2.33;1.10;;;11.30;76.00;;;;;;5037772;28;20037;-64
2021/05/16 05:37:10;;;;;;;0.98;0.52;;;11.30;76.10;;;;;;5038854;28;20512;-64
2021/05/16 05:39:40;;;;;;;0.50;0.50;;;11.30;75.90;;;;;;5041834;28;20144;-64
2021/05/16 05:42:11;;;;;;;1.00;0.35;;;11.40;76.00;;;;;;5035587;28;20050;-64
2021/05/16 05:44:41;;;;;;;1.13;0.40;;;11.40;75.90;;;;;;5031290;28;20028;-64
2021/05/16 05:47:11;;;;;;;0.63;0.50;;;11.40;75.80;;;;;;5034036;28;20678;-63
2021/05/16 05:49:38;;;;;;;1.17;0.40;;;11.40;75.80;;;;;;5032868;28;20034;-64
2021/05/16 05:52:06;;;;;;;0.95;0.40;;;11.40;75.70;;;;;;5036176;28;20029;-64
2021/05/16 05:54:37;;;;;;;0.80;0.52;;;11.40;75.80;;;;;;5031919;28;20041;-65
2021/05/16 05:57:09;;;;;;;0.43;0.32;;;11.40;75.80;;;;;;5038246;28;20069;-64
2021/05/16 05:59:40;;;;;;;1.75;0.63;;;11.50;76.00;;;;;;5035408;28;20751;-64
2021/05/16 06:02:10;;;;;;;0.65;0.35;;;11.50;76.00;;;;;;5021493;28;20049;-64
2021/05/16 06:04:38;;;;;;;2.00;0.57;;;11.50;76.00;;;;;;5031692;28;20034;-64
2021/05/16 06:07:06;;;;;;;1.02;0.47;;;11.60;76.10;;;;;;5031523;28;20037;-64
2021/05/16 06:09:36;;;;;;;3.35;0.57;;;11.60;76.10;;;;;;5038451;28;20034;-64
2021/05/16 06:12:06;;;;;;;1.42;0.30;;;11.60;75.80;;;;;;5027289;28;20033;-63
2021/05/16 06:14:36;;;;;;;1.63;0.55;;;11.70;76.00;;;;;;5030700;28;20065;-64
2021/05/16 06:17:04;;;;;;;1.08;0.50;;;11.70;75.90;;;;;;5031637;28;20509;-65
2021/05/16 06:19:36;;;;;;;2.58;0.68;;;11.70;75.80;;;;;;5037062;28;20497;-65
2021/05/16 06:22:07;;;;;;;1.42;0.30;;;11.80;75.80;;;;;;5040367;28;20131;-64
2021/05/16 06:24:36;;;;;;;3.75;0.60;;;11.80;75.60;;;;;;5054224;28;20118;-64
2021/05/16 06:27:04;;;;;;;1.45;0.60;;;11.80;75.20;;;;;;5030529;28;20048;-64
2021/05/16 06:29:29;;;;;;;2.65;0.68;;;11.90;75.20;;;;;;5034599;28;20033;-64
2021/05/16 06:31:57;;;;;;;0.50;0.40;;;11.90;75.40;;;;;;5033322;28;20036;-64
2021/05/16 06:34:23;;;;;;;3.30;1.27;;;11.90;75.30;;;;;;5029416;28;20580;-65
2021/05/16 06:36:48;;;;;;;1.33;0.70;;;11.90;75.30;;;;;;5032911;28;20043;-64
2021/05/16 06:39:18;;;;;;;2.72;0.95;;;11.90;75.40;;;;;;5033986;28;20042;-64
2021/05/16 06:41:46;;;;;;;1.20;0.68;;;12.00;75.90;;;;;;5038026;28;20051;-64
2021/05/16 06:44:12;;;;;;;1.10;0.47;;;12.00;75.90;;;;;;5036025;28;20056;-65
2021/05/16 06:46:44;;;;;;;2.10;0.60;;;12.10;76.00;;;;;;5031355;28;20413;-64
2021/05/16 06:49:12;;;;;;;1.25;0.52;;;12.20;76.10;;;;;;5032652;28;20037;-65
2021/05/16 06:51:40;;;;;;;3.13;0.88;;;12.20;76.00;;;;;;5036652;28;20865;-65
2021/05/16 06:54:08;;;;;;;2.65;0.70;;;12.30;75.80;;;;;;5038435;28;20557;-65
2021/05/16 06:56:39;;;;;;;2.08;0.60;;;12.40;75.80;;;;;;5034125;28;20091;-64
2021/05/16 06:59:07;;;;;;;2.90;0.50;;;12.50;75.40;;;;;;5036008;28;20032;-64
2021/05/16 07:01:35;;;;;;;2.22;0.65;;;12.50;75.30;;;;;;5033585;28;20034;-65
2021/05/16 07:04:03;;;;;;;3.22;0.80;;;12.60;75.10;;;;;;5035537;28;20124;-64
2021/05/16 07:06:31;;;;;;;1.23;0.60;;;12.70;74.80;;;;;;5024138;28;20041;-64
2021/05/16 07:08:56;;;;;;;2.50;1.23;;;12.80;74.20;;;;;;5018940;28;20041;-65
2021/05/16 07:11:24;;;;;;;5.03;2.80;;;12.80;74.10;;;;;;5016942;28;20577;-64
2021/05/16 07:13:54;;;;;;;5.93;2.63;;;12.90;74.00;;;;;;5022209;28;20044;-65
2021/05/16 07:16:22;;;;;;;3.97;1.45;;;13.00;74.20;;;;;;5022436;28;20033;-64
2021/05/16 07:18:47;;;;;;;2.35;0.70;;;13.10;73.20;;;;;;5025169;28;20113;-64
2021/05/16 07:21:18;;;;;;;2.08;0.70;;;13.20;72.50;;;;;;5023034;28;20052;-65
2021/05/16 07:23:46;;;;;;;3.50;0.88;;;13.30;72.40;;;;;;5019305;28;20089;-65
2021/05/16 07:26:16;;;;;;;3.03;0.95;;;13.40;72.10;;;;;;5024088;28;20033;-64
2021/05/16 07:28:42;;;;;;;3.03;0.95;;;13.40;71.50;;;;;;5020166;28;20148;-65
2021/05/16 07:31:12;;;;;;;2.63;0.70;;;13.50;71.30;;;;;;5026190;28;20037;-64
2021/05/16 07:33:43;;;;;;;4.03;1.00;;;13.50;70.80;;;;;;5024385;28;20557;-64
2021/05/16 07:36:14;;;;;;;5.53;0.98;;;13.60;71.20;;;;;;5022000;28;20762;-64
2021/05/16 07:38:44;;;;;;;3.45;0.80;;;13.70;71.10;;;;;;5029148;28;20512;-64
2021/05/16 07:41:10;;;;;;;5.63;1.00;;;13.70;70.90;;;;;;5036194;28;20045;-65
2021/05/16 07:43:38;;;;;;;7.65;1.20;;;13.80;70.90;;;;;;5033496;28;20086;-65
2021/05/16 07:46:08;;;;;;;4.05;0.90;;;13.90;70.20;;;;;;5033337;28;20041;-65
2021/05/16 07:48:39;;;;;;;4.03;0.98;;;14.00;70.40;;;;;;5030897;28;20408;-65
2021/05/16 07:51:09;;;;;;;3.20;0.95;;;14.10;69.90;;;;;;5035008;28;20029;-64
2021/05/16 07:53:40;;;;;;;5.30;0.90;;;14.20;69.50;;;;;;5034219;28;20092;-65
2021/05/16 07:56:07;;;;;;;4.15;1.00;;;14.40;69.20;;;;;;5035709;28;20444;-65
2021/05/16 07:58:33;;;;;;;3.55;1.45;;;14.40;68.50;;;;;;5036221;28;20038;-65
2021/05/16 08:01:06;;;;;;;5.97;1.60;;;14.40;68.10;;;;;;5034232;28;20045;-65
2021/05/16 08:03:31;;;;;;;4.93;1.50;;;14.50;67.70;;;;;;5035880;28;20053;-65
2021/05/16 08:05:59;;;;;;;6.10;1.08;;;14.50;67.80;;;;;;5035441;28;20441;-65
2021/05/16 08:08:24;;;;;;;3.67;1.08;;;14.60;67.50;;;;;;5031875;28;20041;-65
2021/05/16 08:10:51;;;;;;;4.88;0.90;;;14.60;67.30;;;;;;5027852;28;20063;-65
2021/05/16 08:13:19;;;;;;;3.45;1.10;;;14.70;65.80;;;;;;5033388;28;20560;-65
2021/05/16 08:15:47;;;;;;;3.75;0.90;;;14.80;65.90;;;;;;5034100;28;20038;-65
2021/05/16 08:18:17;;;;;;;4.03;0.98;;;14.80;66.30;;;;;;5031192;28;20034;-65
2021/05/16 08:20:45;;;;;;;3.25;1.08;;;14.90;66.40;;;;;;5031926;28;20549;-64
2021/05/16 08:23:13;;;;;;;5.43;1.08;;;14.90;66.30;;;;;;5031421;28;20519;-64
2021/05/16 08:25:39;;;;;;;6.32;1.52;;;15.00;66.20;;;;;;5032584;28;20037;-64
2021/05/16 08:28:09;;;;;;;5.95;1.92;;;15.10;65.50;;;;;;5034231;28;20041;-64
2021/05/16 08:30:37;;;;;;;6.95;1.90;;;15.20;65.40;;;;;;5034681;28;20033;-64
2021/05/16 08:33:07;;;;;;;5.25;1.52;;;15.20;64.90;;;;;;5035416;28;20053;-64
2021/05/16 08:35:34;;;;;;;4.22;1.70;;;15.20;65.30;;;;;;5037320;28;20032;-65
2021/05/16 08:38:05;;;;;;;7.50;1.83;;;15.30;65.00;;;;;;5034995;28;20034;-63
2021/05/16 08:40:35;;;;;;;7.28;2.40;;;15.40;64.90;;;;;;5036150;28;20037;-64
2021/05/16 08:43:05;;;;;;;7.68;3.30;;;15.50;65.20;;;;;;5034704;28;20040;-64
2021/05/16 08:45:34;;;;;;;9.70;2.08;;;15.50;64.50;;;;;;5035005;28;20026;-64
2021/05/16 08:48:02;;;;;;;5.85;1.83;;;15.60;64.30;;;;;;5030276;28;20078;-65
2021/05/16 08:50:33;;;;;;;6.18;1.27;;;15.70;63.00;;;;;;5038474;28;20034;-66
2021/05/16 08:53:03;;;;;;;4.30;1.63;;;15.80;62.60;;;;;;5036661;28;20083;-64
2021/05/16 08:55:32;;;;;;;3.10;0.90;;;15.80;61.70;;;;;;5035979;28;20332;-65
2021/05/16 08:58:00;;;;;;;4.80;0.68;;;15.80;60.30;;;;;;5035962;28;20711;-64
2021/05/16 09:00:32;;;;;;;2.60;0.70;;;15.80;60.60;;;;;;5038056;28;20178;-65
2021/05/16 09:03:00;;;;;;;3.80;0.60;;;15.90;58.90;;;;;;5038979;28;20030;-64
2021/05/16 09:05:33;;;;;;;2.72;0.60;;;15.90;59.40;;;;;;5039206;28;20507;-65
2021/05/16 09:08:05;;;;;;;2.40;0.60;;;15.90;58.40;;;;;;5037881;28;20040;-64
2021/05/16 09:10:36;;;;;;;3.03;1.00;;;16.00;57.70;;;;;;5035174;28;20091;-65
2021/05/16 09:13:22;;;;;;;3.08;1.00;;;16.00;58.30;;;;;;5038160;28;20032;-65
2021/05/16 09:16:07;;;;;;;4.03;0.73;;;15.90;58.40;;;;;;5044050;28;20363;-65
2021/05/16 09:18:42;;;;;;;2.65;0.60;;;16.00;59.40;;;;;;5037606;28;20029;-65
2021/05/16 09:21:26;;;;;;;2.58;0.88;;;16.10;59.50;;;;;;5038651;28;20049;-65
2021/05/16 09:24:09;;;;;;;2.70;0.60;;;16.20;58.50;;;;;;5037978;28;20034;-63
2021/05/16 09:26:51;;;;;;;3.22;1.45;;;16.30;57.20;;;;;;5036956;28;20033;-64
2021/05/16 09:29:26;;;;;;;2.05;1.35;;;16.40;58.00;;;;;;5035931;28;20322;-64
2021/05/16 09:32:00;;;;;;;1.42;0.60;;;16.50;57.20;;;;;;5039812;28;20520;-64
2021/05/16 09:34:28;;;;;;;4.43;0.63;;;16.50;57.30;;;;;;5037391;28;20037;-65
2021/05/16 09:37:01;;;;;;;3.17;0.80;;;16.50;58.00;;;;;;5045805;28;20512;-65
2021/05/16 09:39:34;;;;;;;2.28;0.60;;;16.60;57.80;;;;;;5037936;28;20033;-65
2021/05/16 09:42:12;;;;;;;2.13;0.50;;;16.60;56.90;;;;;;5036454;28;20075;-65
2021/05/16 09:44:47;;;;;;;1.88;0.73;;;16.60;57.90;;;;;;5037388;28;20452;-65
2021/05/16 09:47:27;;;;;;;1.77;0.82;;;16.70;57.80;;;;;;5036497;28;20132;-65
2021/05/16 09:49:58;;;;;;;2.95;0.82;;;16.80;57.10;;;;;;5032984;28;20101;-65
2021/05/16 09:52:26;;;;;;;1.67;0.70;;;16.80;57.50;;;;;;5034311;28;20034;-65
2021/05/16 09:55:00;;;;;;;2.78;0.80;;;16.80;57.30;;;;;;5038542;28;20095;-65
2021/05/16 09:57:34;;;;;;;2.28;0.60;;;16.90;56.70;;;;;;5037184;28;20029;-65
2021/05/16 10:00:09;;;;;;;2.75;0.90;;;17.00;56.50;;;;;;5038840;28;20525;-65
2021/05/16 10:02:41;;;;;;;1.85;0.60;;;17.00;56.30;;;;;;5035624;28;20033;-64
2021/05/16 10:05:13;;;;;;;1.35;0.50;;;17.00;55.90;;;;;;5036329;28;20037;-65
2021/05/16 10:07:42;;;;;;;2.97;0.60;;;17.00;55.70;;;;;;5035908;28;20072;-65
2021/05/16 10:10:15;;;;;;;3.35;0.70;;;17.00;56.60;;;;;;5035992;28;20033;-64
2021/05/16 10:12:46;;;;;;;2.25;0.50;;;17.10;55.80;;;;;;5034656;28;20034;-65
2021/05/16 10:15:19;;;;;;;2.10;0.45;;;17.20;55.60;;;;;;5038696;28;20033;-64
2021/05/16 10:17:52;;;;;;;3.75;0.90;;;17.20;55.90;;;;;;5036565;28;20025;-65
2021/05/16 10:20:25;;;;;;;3.40;0.93;;;17.20;54.80;;;;;;5034038;28;20033;-64
2021/05/16 10:22:57;;;;;;;2.95;0.75;;;17.30;55.20;;;;;;5035613;28;20029;-64
2021/05/16 10:25:48;;;;;;;1.58;0.75;;;17.30;54.70;;;;;;5038116;28;20442;-64
2021/05/16 10:28:16;;;;;;;1.13;0.43;;;17.40;54.60;;;;;;5037033;28;20057;-65
2021/05/16 10:31:03;;;;;;;3.15;0.77;;;17.50;55.60;;;;;;5037984;28;20086;-64
2021/05/16 10:33:39;;;;;;;1.67;0.60;;;17.60;55.00;;;;;;5037735;28;20021;-65
2021/05/16 10:36:05;;;;;;;1.48;0.52;;;17.60;54.80;;;;;;5037266;28;20404;-64
2021/05/16 10:38:36;;;;;;;4.07;0.60;;;17.70;55.10;;;;;;5035729;28;20025;-64
2021/05/16 10:41:18;;;;;;;1.58;0.40;;;17.80;55.00;;;;;;5035456;28;20060;-64
2021/05/16 10:43:48;;;;;;;1.20;0.38;;;17.90;53.40;;;;;;5036514;28;20033;-65
2021/05/16 10:46:41;;;;;;;2.97;0.70;;;18.00;54.50;;;;;;5036194;28;20770;-64
2021/05/16 10:49:31;;;;;;;3.22;0.55;;;18.00;53.70;;;;;;5036320;28;20040;-64
2021/05/16 10:52:17;;;;;;;1.60;0.50;;;18.00;52.70;;;;;;5037409;28;20037;-64
2021/05/16 10:54:52;;;;;;;3.00;0.90;;;18.10;53.50;;;;;;5035710;28;20044;-64
2021/05/16 10:57:24;;;;;;;3.22;0.93;;;18.20;52.90;;;;;;5036417;28;20033;-65
2021/05/16 10:59:53;;;;;;;1.88;0.63;;;18.20;53.50;;;;;;5037560;28;20666;-65
2021/05/16 11:02:58;;;;;;;2.65;0.47;;;18.20;53.00;;;;;;5035544;28;20045;-65
2021/05/16 11:05:50;;;;;;;3.55;0.85;;;18.20;52.40;;;;;;5032702;28;20037;-64
2021/05/16 11:08:18;;;;;;;1.58;0.60;;;18.10;51.90;;;;;;5034940;28;20034;-64
2021/05/16 11:10:50;;;;;;;5.40;0.77;;;18.10;52.90;;;;;;5031921;28;20114;-65
2021/05/16 11:13:31;;;;;;;1.70;0.70;;;18.00;53.60;;;;;;5033975;28;20119;-64
2021/05/16 11:16:09;;;;;;;1.67;0.50;;;18.00;52.80;;;;;;5038504;28;20064;-65
2021/05/16 11:18:40;;;;;;;0.88;0.60;;;18.00;52.50;;;;;;5035695;28;20067;-64
2021/05/16 11:21:08;;;;;;;1.48;0.38;;;18.00;52.80;;;;;;5031376;28;20052;-65
2021/05/16 11:23:39;;;;;;;1.35;0.40;;;18.00;52.50;;;;;;5035752;28;20029;-65
2021/05/16 11:26:12;;;;;;;0.57;0.28;;;18.10;52.30;;;;;;5036719;28;20033;-64
2021/05/16 11:28:55;;;;;;;1.60;0.40;;;18.10;51.90;;;;;;5035371;28;20037;-65
2021/05/16 11:31:29;;;;;;;1.58;0.45;;;18.10;51.30;;;;;;5032525;28;20037;-64
2021/05/16 11:34:02;;;;;;;2.40;0.60;;;18.10;51.50;;;;;;5035951;28;20033;-64
2021/05/16 11:36:39;;;;;;;1.38;0.60;;;18.10;52.00;;;;;;5035170;28;20036;-65
2021/05/16 11:39:08;;;;;;;2.78;0.35;;;18.10;51.60;;;;;;5032446;28;20045;-65
2021/05/16 11:41:45;;;;;;;1.70;0.50;;;18.10;52.10;;;;;;5033539;28;20049;-64
2021/05/16 11:44:24;;;;;;;1.77;0.40;;;18.10;51.90;;;;;;5034634;28;20033;-64
2021/05/16 11:46:52;;;;;;;2.33;0.60;;;18.10;52.00;;;;;;5035303;28;20364;-64
2021/05/16 11:49:30;;;;;;;0.60;0.40;;;18.10;52.20;;;;;;5032137;28;20035;-65
2021/05/16 11:52:05;;;;;;;0.88;0.40;;;18.00;52.60;;;;;;5034335;28;20029;-64
2021/05/16 11:54:43;;;;;;;;;;;18.00;52.80;;;;;;5033845;28;20496;-65
2021/05/16 11:57:15;;;;;;;3.22;0.50;;;18.10;52.50;;;;;;5032744;28;19931;-66
2021/05/16 11:59:47;;;;;;;1.88;0.50;;;18.10;52.40;;;;;;5034769;28;20037;-64
2021/05/16 12:02:13;;;;;;;1.45;0.40;;;18.10;52.40;;;;;;5033910;28;20126;-64
2021/05/16 12:04:46;;;;;;;1.25;0.50;;;18.20;52.80;;;;;;5034186;28;20433;-64
2021/05/16 12:07:25;;;;;;;1.27;0.40;;;18.20;51.70;;;;;;5035975;28;20025;-64
2021/05/16 12:09:55;;;;;;;1.48;0.47;;;18.30;52.00;;;;;;5031735;28;20121;-64
2021/05/16 12:12:27;;;;;;;1.40;0.45;;;18.30;51.60;;;;;;5032829;28;20041;-64
2021/05/16 12:14:55;;;;;;;2.70;0.47;;;18.30;51.50;;;;;;5034639;28;20068;-65
2021/05/16 12:17:32;;;;;;;1.25;0.30;;;18.40;51.70;;;;;;5034253;28;20495;-64
2021/05/16 12:20:00;;;;;;;3.22;0.60;;;18.40;51.10;;;;;;5034915;28;20037;-64
2021/05/16 12:22:40;;;;;;;1.05;0.40;;;18.40;51.40;;;;;;5033380;28;20040;-64
2021/05/16 12:25:14;;;;;;;0.73;0.20;;;18.40;50.70;;;;;;5034171;28;20025;-64
2021/05/16 12:27:46;;;;;;;1.25;0.30;;;18.40;51.30;;;;;;5032651;28;20049;-64
2021/05/16 12:30:15;;;;;;;1.13;0.32;;;18.40;50.70;;;;;;5028596;28;20061;-64
2021/05/16 12:32:51;;;;;;;1.65;0.30;;;18.40;50.70;;;;;;5030599;28;20073;-64
2021/05/16 12:35:19;;;;;;;1.52;0.50;;;18.50;50.60;;;;;;5032082;28;20037;-65
2021/05/16 12:37:48;;;;;;;0.40;0.30;;;18.50;50.60;;;;;;5033580;28;20060;-64
2021/05/16 12:40:28;;;;;;;0.47;0.35;;;18.50;50.60;;;;;;5031336;28;20033;-64
2021/05/16 12:43:07;;;;;;;0.50;0.28;;;18.40;50.20;;;;;;5030237;28;20033;-65
2021/05/16 12:45:39;;;;;;;0.50;0.28;;;18.40;50.10;;;;;;5031979;28;20036;-64
2021/05/16 12:48:11;;;;;;;0.85;0.20;;;18.40;50.50;;;;;;5031952;28;20033;-64
2021/05/16 12:50:40;;;;;;;0.90;0.20;;;18.40;50.90;;;;;;5032363;28;20046;-64
2021/05/16 12:53:25;;;;;;;3.13;0.40;;;18.30;50.80;;;;;;5033370;28;20033;-65
2021/05/16 12:56:15;;;;;;;2.42;0.20;;;18.30;49.70;;;;;;5034188;28;20457;-65
2021/05/16 13:01:31;;;;;;;0.70;0.32;;;18.30;50.60;;;;;;5030615;28;20311;-64
2021/05/16 13:04:07;;;;;;;0.75;0.30;;;18.20;50.40;;;;;;5032781;28;20029;-64
2021/05/16 13:06:43;;;;;;;0.52;0.20;;;18.20;50.50;;;;;;5034173;28;20534;-64
2021/05/16 13:09:26;;;;;;;1.35;0.22;;;18.20;50.00;;;;;;5032686;28;20513;-64